Archival Weather

Chicago O'Hare International

Chicago, Illinois (KORD)

Report from: Saturday, November 5, 2022 4:51 AM CDT
Current time: Saturday, March 2, 2024 5:07 AM CST

Current weather – Weather history – Daily summaries
Weather forecast

Present weatherLight rain
Temperature17.2°C (63.0°F)
Dew point14.4°C (57.9°F)
Winds 30 kts (15.4 m/s, 34.5 mph) South-Southeast (150°)
Wind gusts 45 kts (23.2 m/s, 51.8 mph)
Peak wind 45 kts (23.2 m/s, 51.8 mph) South-Southeast (160°) at 09:50
Visibility9 mi. (14.5 km)
Clouds Scattered clouds 2,100 ft. (640 m)
Ceiling: Broken clouds 10,000 ft. (3,048 m)
Overcast 12,000 ft. (3,658 m)
Altimeter29.50 in.Hg (999 mB)
PrecipitiationTrace
Relative humidity84 %
Density altitude981 ft. (299 m)
Sea-level pressure99.9 kPa (999 mB, 29.49 in.Hg)
Remarks Automated weather observing station with precipitation discriminator
Pressure falling rapidly
Flight conditions Visual Meteorological Conditions
Raw dataKORD 050951Z 15030G45KT 9SM -RA SCT021 BKN100 OVC120 17/14 A2950 RMK AO2 PK WND 16045/0950 PRESFR SLP987 P0000 T01720144
An error has occurred. This application may no longer respond until reloaded. Reload 🗙